Time;durP1;ratioP1;P1;durP2;ratioP2;P2;SDS_P1;SDS_P2;PMS_P1;PMS_P2;Temp;Humidity;BMP_temperature;BMP_pressure;BME280_temperature;BME280_humidity;BME280_pressure;Samples;Min_cycle;Max_cycle;Signal;HPM_P1;HPM_P2
2022/10/25 00:01:35;;;;;;;8.30;8.10;;;12.60;99.90;;;;;;5083268;28;20348;-81
2022/10/25 00:04:05;;;;;;;8.37;8.17;;;12.60;99.90;;;;;;5081779;28;20234;-81
2022/10/25 00:06:35;;;;;;;8.70;8.50;;;12.50;99.90;;;;;;5100011;28;20257;-81
2022/10/25 00:09:04;;;;;;;8.70;8.50;;;12.50;99.90;;;;;;5088897;28;20230;-81
2022/10/25 00:11:33;;;;;;;8.57;8.37;;;12.40;99.90;;;;;;5085039;28;20257;-81
2022/10/25 00:14:05;;;;;;;8.60;8.40;;;12.40;99.90;;;;;;5084090;28;20237;-81
2022/10/25 00:16:42;;;;;;;8.90;8.70;;;12.40;99.90;;;;;;5083810;28;20335;-82
2022/10/25 00:19:10;;;;;;;8.73;8.53;;;12.40;99.90;;;;;;5083527;28;20242;-82
2022/10/25 00:21:40;;;;;;;8.57;8.37;;;12.40;99.90;;;;;;5090517;28;20211;-82
2022/10/25 00:24:10;;;;;;;8.77;8.57;;;12.30;99.90;;;;;;5096678;28;20257;-82
2022/10/25 00:26:40;;;;;;;8.77;8.57;;;12.20;99.90;;;;;;5097055;28;20242;-82
2022/10/25 00:29:08;;;;;;;8.53;8.33;;;12.20;99.90;;;;;;5094280;28;20230;-82
2022/10/25 00:31:48;;;;;;;8.67;8.47;;;12.20;99.90;;;;;;5092365;28;21091;-82
2022/10/25 00:34:18;;;;;;;9.07;8.77;;;12.20;99.90;;;;;;5092303;28;20291;-81
2022/10/25 00:36:46;;;;;;;8.70;8.50;;;12.10;99.90;;;;;;5089874;28;20226;-82
2022/10/25 00:39:15;;;;;;;8.70;8.50;;;12.10;99.90;;;;;;5085754;28;20230;-81
2022/10/25 00:41:45;;;;;;;8.10;7.90;;;12.10;99.90;;;;;;5084264;28;20936;-82
2022/10/25 00:44:50;;;;;;;7.97;7.77;;;12.10;99.90;;;;;;5081104;28;20318;-82
2022/10/25 00:47:38;;;;;;;8.63;8.43;;;12.10;99.90;;;;;;5081975;28;20238;-82
2022/10/25 00:50:25;;;;;;;8.83;8.63;;;12.00;99.90;;;;;;5082265;28;20233;-82
2022/10/25 00:53:02;;;;;;;9.20;8.90;;;12.00;99.90;;;;;;5082075;28;20215;-81
2022/10/25 00:55:31;;;;;;;8.70;8.50;;;12.00;99.90;;;;;;5082240;28;20321;-82
2022/10/25 00:58:02;;;;;;;8.70;8.50;;;12.00;99.90;;;;;;5082500;28;20253;-82
2022/10/25 01:00:32;;;;;;;8.80;8.60;;;12.00;99.90;;;;;;5081978;28;20230;-82
2022/10/25 01:05:48;;;;;;;9.10;8.80;;;11.90;99.90;;;;;;5082285;28;20226;-82
2022/10/25 01:08:18;;;;;;;8.37;8.17;;;11.90;99.90;;;;;;5082351;28;20300;-83
2022/10/25 01:10:47;;;;;;;8.87;8.67;;;11.90;99.90;;;;;;5082395;28;20292;-83
2022/10/25 01:13:17;;;;;;;8.77;8.57;;;11.90;99.90;;;;;;5082491;28;20222;-82
2022/10/25 01:15:56;;;;;;;8.77;8.57;;;11.80;99.90;;;;;;5081596;28;20301;-82
2022/10/25 01:18:43;;;;;;;8.50;8.30;;;11.80;99.90;;;;;;5082984;28;20226;-83
2022/10/25 01:21:42;;;;;;;8.47;8.27;;;11.70;99.90;;;;;;5088038;28;20265;-82
2022/10/25 01:24:53;;;;;;;9.10;8.80;;;11.70;99.90;;;;;;5082821;28;20234;-83
2022/10/25 01:28:04;;;;;;;9.10;8.80;;;11.70;99.90;;;;;;5068955;28;20222;-82
2022/10/25 01:31:18;;;;;;;9.10;8.80;;;11.70;99.90;;;;;;5101349;28;20226;-82
2022/10/25 01:33:55;;;;;;;8.83;8.63;;;11.70;99.90;;;;;;5098209;28;20218;-82
2022/10/25 01:36:36;;;;;;;8.80;8.60;;;11.70;99.90;;;;;;5082243;28;20295;-82
2022/10/25 01:39:11;;;;;;;9.13;8.83;;;11.70;99.90;;;;;;5081061;28;20297;-82
2022/10/25 01:41:52;;;;;;;8.87;8.67;;;11.70;99.90;;;;;;5081474;28;20244;-83
2022/10/25 01:44:37;;;;;;;9.13;8.83;;;11.80;99.90;;;;;;5080948;28;20262;-82
2022/10/25 01:47:17;;;;;;;8.97;8.70;;;11.70;99.90;;;;;;5081696;28;20309;-83
2022/10/25 01:49:55;;;;;;;8.67;8.47;;;11.70;99.90;;;;;;5082294;28;20238;-83
2022/10/25 01:52:24;;;;;;;9.00;8.73;;;11.70;99.90;;;;;;5082692;28;20234;-83
2022/10/25 01:54:52;;;;;;;9.20;8.90;;;11.70;99.90;;;;;;5081507;28;20384;-83
2022/10/25 01:57:40;;;;;;;9.20;8.90;;;11.70;99.90;;;;;;5082188;28;20286;-83
2022/10/25 02:00:12;;;;;;;8.50;8.30;;;11.70;99.90;;;;;;5082079;28;20230;-83
2022/10/25 02:03:06;;;;;;;8.60;8.40;;;11.70;99.90;;;;;;5081796;28;20238;-82
2022/10/25 02:05:53;;;;;;;8.47;8.27;;;11.70;99.90;;;;;;5082448;28;20233;-84
2022/10/25 02:08:33;;;;;;;8.80;8.60;;;11.70;99.90;;;;;;5081209;28;20234;-83
2022/10/25 02:11:08;;;;;;;8.90;8.70;;;11.60;99.90;;;;;;5081872;28;20655;-83
2022/10/25 02:13:48;;;;;;;8.73;8.53;;;11.60;99.90;;;;;;5082730;28;20230;-82
2022/10/25 02:16:25;;;;;;;9.10;8.80;;;11.60;99.90;;;;;;5100103;28;20206;-82
2022/10/25 02:19:03;;;;;;;9.13;8.83;;;11.50;99.90;;;;;;5085144;28;20225;-83
2022/10/25 02:21:33;;;;;;;8.83;8.63;;;11.60;99.90;;;;;;5085751;28;20226;-82
2022/10/25 02:24:11;;;;;;;9.07;8.77;;;11.60;99.90;;;;;;5083560;28;20238;-83
2022/10/25 02:26:41;;;;;;;9.30;9.00;;;11.60;99.90;;;;;;5083368;28;20234;-83
2022/10/25 02:29:10;;;;;;;9.03;8.73;;;11.50;99.90;;;;;;5082505;28;20234;-82
2022/10/25 02:31:39;;;;;;;8.80;8.60;;;11.50;99.90;;;;;;5081236;28;20740;-82
2022/10/25 02:34:18;;;;;;;9.03;8.73;;;11.50;99.90;;;;;;5080778;28;20706;-82
2022/10/25 02:36:49;;;;;;;9.10;8.80;;;11.50;99.90;;;;;;5080712;28;20234;-82
2022/10/25 02:39:18;;;;;;;8.50;8.30;;;11.50;99.90;;;;;;5080576;28;20214;-82
2022/10/25 02:41:45;;;;;;;8.87;8.67;;;11.50;99.90;;;;;;5080858;28;20320;-83
2022/10/25 02:44:15;;;;;;;9.20;8.90;;;11.50;99.90;;;;;;5080035;28;20237;-82
2022/10/25 02:46:44;;;;;;;9.17;8.87;;;11.50;99.90;;;;;;5081264;28;20226;-82
2022/10/25 02:49:23;;;;;;;8.60;8.40;;;11.50;99.90;;;;;;5081069;28;20317;-82
2022/10/25 02:51:52;;;;;;;8.60;8.40;;;11.50;99.90;;;;;;5081043;28;20229;-82
2022/10/25 02:54:21;;;;;;;8.53;8.33;;;11.60;99.90;;;;;;5080261;28;20698;-82
2022/10/25 02:56:51;;;;;;;8.67;8.47;;;11.50;99.90;;;;;;5080267;28;20365;-82
2022/10/25 02:59:22;;;;;;;9.10;8.80;;;11.60;99.90;;;;;;5080153;28;20249;-82
2022/10/25 03:01:51;;;;;;;8.60;8.40;;;11.60;99.90;;;;;;5080152;28;20226;-82
2022/10/25 03:04:30;;;;;;;8.50;8.30;;;11.60;99.90;;;;;;5080538;28;20291;-82
2022/10/25 03:06:59;;;;;;;8.60;8.40;;;11.60;99.90;;;;;;5086896;28;20225;-83
2022/10/25 03:09:29;;;;;;;8.43;8.23;;;11.60;99.90;;;;;;5080173;28;20258;-82
2022/10/25 03:11:59;;;;;;;8.60;8.40;;;11.50;99.90;;;;;;5080466;28;20250;-82
2022/10/25 03:14:27;;;;;;;8.70;8.50;;;11.50;99.90;;;;;;5079682;28;20260;-82
2022/10/25 03:16:58;;;;;;;8.30;8.10;;;11.50;99.90;;;;;;5084641;28;20256;-82
2022/10/25 03:19:55;;;;;;;8.23;8.03;;;11.50;99.90;;;;;;5089311;28;20237;-83
2022/10/25 03:22:25;;;;;;;8.20;8.00;;;11.50;99.90;;;;;;5082853;28;20257;-81
2022/10/25 03:25:01;;;;;;;8.27;8.07;;;11.50;99.90;;;;;;5081504;28;20269;-82
2022/10/25 03:27:31;;;;;;;8.00;7.80;;;11.50;99.90;;;;;;5082031;28;20261;-82
2022/10/25 03:30:00;;;;;;;8.07;7.87;;;11.50;99.90;;;;;;5082239;28;20225;-82
2022/10/25 03:32:29;;;;;;;8.17;7.97;;;11.50;99.90;;;;;;5081958;28;20237;-82
2022/10/25 03:35:08;;;;;;;8.10;7.90;;;11.50;99.90;;;;;;5082679;28;20261;-82
2022/10/25 03:37:36;;;;;;;8.40;8.20;;;11.50;99.90;;;;;;5085033;28;20935;-82
2022/10/25 03:40:06;;;;;;;8.40;8.20;;;11.40;99.90;;;;;;5088866;28;20279;-81
2022/10/25 03:42:35;;;;;;;8.30;8.10;;;11.40;99.90;;;;;;5102877;28;20221;-82
2022/10/25 03:45:05;;;;;;;8.40;8.20;;;11.40;99.90;;;;;;5102281;28;20214;-83
2022/10/25 03:47:34;;;;;;;8.30;8.10;;;11.40;99.90;;;;;;5097847;28;20300;-83
2022/10/25 03:50:13;;;;;;;8.30;8.10;;;11.40;99.90;;;;;;5087096;28;20222;-83
2022/10/25 03:52:42;;;;;;;8.17;7.97;;;11.40;99.90;;;;;;5085631;28;20229;-82
2022/10/25 03:55:12;;;;;;;8.00;7.80;;;11.40;99.90;;;;;;5084951;28;20322;-83
2022/10/25 03:57:40;;;;;;;8.20;8.00;;;11.40;99.90;;;;;;5093514;28;20238;-83
2022/10/25 04:00:13;;;;;;;8.00;7.80;;;11.40;99.90;;;;;;5095868;28;20238;-83
2022/10/25 04:02:41;;;;;;;8.00;7.80;;;11.40;99.90;;;;;;5095140;28;20222;-83
2022/10/25 04:05:12;;;;;;;8.23;8.03;;;11.40;99.90;;;;;;5087631;28;20234;-83
2022/10/25 04:07:39;;;;;;;8.10;7.90;;;11.30;99.90;;;;;;5085124;28;20249;-82
2022/10/25 04:10:08;;;;;;;8.10;7.90;;;11.30;99.90;;;;;;5085037;28;20218;-83
2022/10/25 04:12:38;;;;;;;8.30;8.10;;;11.20;99.90;;;;;;5064194;28;20223;-83
2022/10/25 04:15:07;;;;;;;8.07;7.87;;;11.20;99.90;;;;;;5069407;28;20268;-83
2022/10/25 04:17:37;;;;;;;8.03;7.83;;;11.20;99.90;;;;;;5084342;28;20238;-83
2022/10/25 04:20:06;;;;;;;8.00;7.80;;;11.20;99.90;;;;;;5084808;28;20257;-83
2022/10/25 04:22:38;;;;;;;7.70;7.50;;;11.20;99.90;;;;;;5084178;28;20237;-83
2022/10/25 04:25:14;;;;;;;7.70;7.50;;;11.10;99.90;;;;;;5099685;28;20244;-82
2022/10/25 04:27:43;;;;;;;7.90;7.70;;;11.10;99.90;;;;;;5090966;28;20264;-83
2022/10/25 04:30:12;;;;;;;7.90;7.70;;;11.10;99.90;;;;;;5085556;28;20319;-83
2022/10/25 04:32:41;;;;;;;7.80;7.60;;;11.10;99.90;;;;;;5084855;28;20241;-83
2022/10/25 04:35:11;;;;;;;8.03;7.83;;;11.10;99.90;;;;;;5075283;28;20261;-84
2022/10/25 04:37:52;;;;;;;8.00;7.80;;;11.10;99.90;;;;;;5075562;28;20241;-83
2022/10/25 04:40:20;;;;;;;8.00;7.80;;;11.10;99.90;;;;;;5083419;28;20222;-83
2022/10/25 04:42:50;;;;;;;8.00;7.80;;;11.10;99.90;;;;;;5083804;28;20272;-83
2022/10/25 04:45:18;;;;;;;7.80;7.60;;;11.00;99.90;;;;;;5091571;28;20222;-83
2022/10/25 04:47:48;;;;;;;7.60;7.40;;;11.00;99.90;;;;;;5087039;28;20230;-83
2022/10/25 04:50:17;;;;;;;7.90;7.70;;;11.00;99.90;;;;;;5086256;28;20218;-83
2022/10/25 04:52:49;;;;;;;7.63;7.43;;;11.00;99.90;;;;;;5085532;28;20226;-83
2022/10/25 04:55:17;;;;;;;7.90;7.70;;;10.90;99.90;;;;;;5084365;28;20230;-83
2022/10/25 04:57:45;;;;;;;7.90;7.70;;;10.90;99.90;;;;;;5083160;28;20253;-83
2022/10/25 05:00:17;;;;;;;7.90;7.70;;;10.90;99.90;;;;;;5083312;28;20265;-81
2022/10/25 05:02:48;;;;;;;7.47;7.27;;;10.90;99.90;;;;;;5083261;28;20276;-83
2022/10/25 05:05:15;;;;;;;7.40;7.20;;;10.90;99.90;;;;;;5083313;28;20325;-82
2022/10/25 05:07:44;;;;;;;7.60;7.40;;;10.90;99.90;;;;;;5083206;28;20245;-84
2022/10/25 05:10:25;;;;;;;7.97;7.77;;;10.90;99.90;;;;;;5090958;28;20278;-82
2022/10/25 05:12:55;;;;;;;8.50;8.30;;;10.90;99.90;;;;;;5086660;28;20281;-82
2022/10/25 05:15:23;;;;;;;8.10;7.90;;;10.90;99.90;;;;;;5086156;28;20257;-82
2022/10/25 05:17:51;;;;;;;8.00;7.80;;;10.90;99.90;;;;;;5085631;28;20246;-82
2022/10/25 05:20:22;;;;;;;8.40;8.20;;;10.80;99.90;;;;;;5086582;28;20249;-82
2022/10/25 05:22:53;;;;;;;8.20;8.00;;;10.90;99.90;;;;;;5084837;28;20226;-82
2022/10/25 05:25:23;;;;;;;8.27;8.07;;;10.90;99.90;;;;;;5084632;28;20238;-82
2022/10/25 05:27:51;;;;;;;8.10;7.90;;;10.90;99.90;;;;;;5084655;28;20321;-82
2022/10/25 05:30:19;;;;;;;8.10;7.90;;;10.90;99.90;;;;;;5084034;28;20240;-82
2022/10/25 05:32:49;;;;;;;7.77;7.57;;;10.90;99.90;;;;;;5084398;28;20230;-83
2022/10/25 05:35:17;;;;;;;7.80;7.60;;;10.90;99.90;;;;;;5085076;28;20242;-82
2022/10/25 05:37:46;;;;;;;7.93;7.73;;;11.00;99.90;;;;;;5081132;28;20242;-82
2022/10/25 05:40:16;;;;;;;7.70;7.50;;;10.90;99.90;;;;;;5082116;28;20356;-82
2022/10/25 05:42:48;;;;;;;7.80;7.60;;;11.00;99.90;;;;;;5082278;28;20241;-82
2022/10/25 05:48:48;;;;;;;8.10;7.90;;;11.10;99.90;;;;;;5093558;22;20399;-89
2022/10/25 05:56:04;;;;;;;8.47;8.27;;;11.30;99.90;;;;;;4972999;28;20312;-88
2022/10/25 06:21:56;;;;;;;7.77;7.57;;;11.30;99.90;;;;;;4845470;29;20293;-91
2022/10/25 07:44:13;;;;;;;9.10;8.80;;;13.10;99.90;;;;;;4934596;28;20328;-87
2022/10/25 07:46:49;;;;;;;9.40;9.10;;;13.10;99.90;;;;;;4980935;28;20279;-88
2022/10/25 07:52:15;;;;;;;9.03;8.73;;;13.30;99.90;;;;;;5088362;28;20226;-88
2022/10/25 07:54:52;;;;;;;9.20;8.90;;;13.40;99.90;;;;;;5095794;28;20233;-88
2022/10/25 07:57:30;;;;;;;9.23;8.93;;;13.40;99.90;;;;;;5094054;28;20230;-88
2022/10/25 08:00:08;;;;;;;9.40;9.10;;;13.50;99.90;;;;;;5092358;28;20260;-87
2022/10/25 08:02:43;;;;;;;9.40;9.10;;;13.60;99.90;;;;;;5091072;28;20288;-88
2022/10/25 08:05:26;;;;;;;9.50;9.20;;;13.70;99.90;;;;;;5136921;22;20248;-86
2022/10/25 08:08:07;;;;;;;9.20;8.90;;;13.80;99.90;;;;;;5100565;28;20233;-87
2022/10/25 08:14:22;;;;;;;9.80;9.50;;;14.00;99.90;;;;;;5092984;28;20251;-88
2022/10/25 08:38:39;;;;;;;8.75;8.55;;;14.90;99.90;;;;;;4799575;29;20253;-88
2022/10/25 08:55:43;;;;;;;9.25;8.95;;;15.90;99.90;;;;;;4880617;29;20357;-86
2022/10/25 09:03:23;;;;;;;9.23;8.93;;;16.40;99.90;;;;;;5059724;28;20288;-89
2022/10/25 09:10:39;;;;;;;8.88;8.65;;;16.60;99.90;;;;;;5048106;28;20243;-89
2022/10/25 09:13:26;;;;;;;9.40;9.10;;;16.80;99.90;;;;;;4998492;28;20229;-89
2022/10/25 09:16:37;;;;;;;9.43;9.13;;;17.00;99.90;;;;;;4998287;28;20236;-87
2022/10/25 09:19:37;;;;;;;9.40;9.10;;;17.00;99.90;;;;;;5012834;28;20225;-88
2022/10/25 09:22:12;;;;;;;9.80;9.50;;;17.00;99.90;;;;;;5081628;28;20245;-86
2022/10/25 09:24:51;;;;;;;9.63;9.32;;;17.10;99.90;;;;;;5077515;28;20230;-87
2022/10/25 09:27:28;;;;;;;9.50;9.20;;;17.20;99.90;;;;;;5063704;28;20226;-87
2022/10/25 09:33:58;;;;;;;9.77;9.48;;;17.20;99.90;;;;;;4922627;28;20234;-87
2022/10/25 09:47:15;;;;;;;9.40;9.10;;;17.50;99.90;;;;;;5061187;28;20226;-87
2022/10/25 09:50:22;;;;;;;9.30;9.00;;;17.50;99.90;;;;;;5078809;28;20266;-85
2022/10/25 09:53:24;;;;;;;9.43;9.13;;;17.20;99.90;;;;;;5040978;28;20222;-87
2022/10/25 09:55:55;;;;;;;9.40;9.10;;;17.20;99.90;;;;;;5079197;28;20248;-84
2022/10/25 09:58:25;;;;;;;9.40;9.10;;;16.90;99.90;;;;;;5080165;28;20268;-85
2022/10/25 10:08:49;;;;;;;9.85;9.55;;;16.70;99.90;;;;;;4908291;29;20239;-88
2022/10/25 10:11:55;;;;;;;9.38;9.07;;;16.80;99.90;;;;;;5030304;28;20239;-86
2022/10/25 10:20:15;;;;;;;8.88;8.68;;;16.80;99.90;;;;;;5062253;28;20231;-85
2022/10/25 10:22:53;;;;;;;8.85;8.65;;;16.90;99.90;;;;;;5068209;28;20223;-87
2022/10/25 10:25:30;;;;;;;9.57;9.27;;;17.00;99.90;;;;;;5079872;28;20235;-86
2022/10/25 10:28:04;;;;;;;9.30;9.00;;;17.10;99.90;;;;;;5079269;28;20230;-87
2022/10/25 10:31:07;;;;;;;9.80;9.50;;;17.20;99.90;;;;;;5074913;28;20330;-90
2022/10/25 10:33:54;;;;;;;9.85;9.55;;;17.40;99.90;;;;;;5058820;28;20246;-88
2022/10/25 10:36:32;;;;;;;10.18;9.88;;;17.60;99.90;;;;;;5059761;28;20324;-87
2022/10/25 10:39:27;;;;;;;10.20;9.90;;;17.90;99.90;;;;;;5059154;28;20223;-86
2022/10/25 10:42:24;;;;;;;10.20;9.90;;;18.20;99.90;;;;;;5073446;28;20281;-88
2022/10/25 10:51:37;;;;;;;10.60;10.30;;;18.40;99.90;;;;;;5057693;28;20217;-88
2022/10/25 10:57:36;;;;;;;10.70;10.40;;;18.80;99.90;;;;;;5076330;28;20288;-89
2022/10/25 11:00:16;;;;;;;10.57;10.27;;;19.20;99.90;;;;;;5057527;28;20329;-89
2022/10/25 11:02:54;;;;;;;10.55;10.25;;;19.20;99.90;;;;;;5068977;28;20234;-86
2022/10/25 11:08:35;;;;;;;10.45;10.15;;;18.90;99.90;;;;;;5058401;28;20313;-88
2022/10/25 11:14:09;;;;;;;10.48;10.18;;;18.40;99.90;;;;;;5055712;28;20227;-89
2022/10/25 11:20:02;;;;;;;10.10;9.80;;;18.20;99.90;;;;;;5055325;28;20230;-88
2022/10/25 11:22:58;;;;;;;10.30;10.00;;;18.80;99.90;;;;;;5056237;28;20792;-87
2022/10/25 11:25:44;;;;;;;10.35;10.05;;;19.60;99.90;;;;;;5056621;28;20230;-87
2022/10/25 11:28:39;;;;;;;10.05;9.75;;;20.30;99.90;;;;;;5057095;28;20388;-88
2022/10/25 11:31:23;;;;;;;9.70;9.40;;;20.40;99.90;;;;;;5060613;28;20312;-86
2022/10/25 11:34:33;;;;;;;10.57;10.27;;;20.00;99.90;;;;;;5057250;28;20223;-90
2022/10/25 11:37:19;;;;;;;11.10;10.80;;;19.60;99.90;;;;;;5054498;28;20226;-85
2022/10/25 11:43:19;;;;;;;10.82;10.52;;;19.80;99.90;;;;;;5055848;28;20243;-87
2022/10/25 11:49:20;;;;;;;10.75;10.45;;;19.90;99.90;;;;;;5056983;28;20219;-85
2022/10/25 11:52:00;;;;;;;10.70;10.40;;;19.50;99.90;;;;;;5073470;28;20242;-81
2022/10/25 12:00:51;;;;;;;10.77;10.48;;;18.40;99.90;;;;;;5060536;28;20230;-84
2022/10/25 12:03:58;;;;;;;10.50;10.20;;;18.10;99.90;;;;;;5066989;28;20262;-84
2022/10/25 12:19:41;;;;;;;11.20;10.90;;;20.20;99.90;;;;;;5061340;28;20239;-85
2022/10/25 12:30:50;;;;;;;10.65;10.35;;;20.20;99.90;;;;;;4965887;28;20221;-83
2022/10/25 12:45:01;;;;;;;10.27;9.98;;;18.50;99.90;;;;;;4982591;28;20281;-80
2022/10/25 12:47:47;;;;;;;10.65;10.35;;;19.10;99.90;;;;;;5063240;28;20235;-81
2022/10/25 12:54:10;;;;;;;10.88;10.57;;;20.70;99.90;;;;;;5069800;28;20234;-81
2022/10/25 12:57:05;;;;;;;10.70;10.40;;;21.30;99.90;;;;;;5063505;28;20239;-81
2022/10/25 13:00:08;;;;;;;10.65;10.35;;;21.60;99.90;;;;;;5062824;28;20258;-83
2022/10/25 13:09:14;;;;;;;10.30;10.00;;;23.00;99.90;;;;;;5065873;28;20242;-82
2022/10/25 13:11:49;;;;;;;10.07;9.77;;;23.20;99.90;;;;;;5056211;28;20234;-81
2022/10/25 13:14:28;;;;;;;10.20;9.90;;;22.80;99.90;;;;;;5062485;28;20313;-81
2022/10/25 13:17:49;;;;;;;10.20;9.90;;;23.00;99.90;;;;;;5062472;28;20242;-81
2022/10/25 13:20:54;;;;;;;10.30;10.00;;;23.00;99.90;;;;;;5062460;28;20235;-82
2022/10/25 13:23:59;;;;;;;10.50;10.20;;;22.90;99.90;;;;;;5062653;28;20226;-81
2022/10/25 13:26:38;;;;;;;10.30;10.00;;;23.40;99.90;;;;;;5061993;28;20234;-81
2022/10/25 13:30:00;;;;;;;10.30;10.00;;;23.70;99.90;;;;;;5061627;28;20270;-81
2022/10/25 13:32:29;;;;;;;10.15;9.85;;;23.50;99.90;;;;;;5062730;28;20238;-82
2022/10/25 13:35:56;;;;;;;10.30;10.00;;;23.20;99.90;;;;;;5066180;28;20333;-82
2022/10/25 13:38:33;;;;;;;10.43;10.13;;;23.50;99.90;;;;;;5008661;28;20303;-85
2022/10/25 13:47:54;;;;;;;10.30;10.00;;;23.80;99.90;;;;;;4998196;28;20242;-84
2022/10/25 13:50:33;;;;;;;10.18;9.88;;;24.00;99.90;;;;;;4999465;28;20714;-83
2022/10/25 13:53:12;;;;;;;10.25;9.95;;;23.70;99.90;;;;;;5045467;28;20215;-84
2022/10/25 13:55:48;;;;;;;10.20;9.90;;;23.40;99.90;;;;;;5066674;28;20210;-83
2022/10/25 14:07:49;;;;;;;9.82;9.52;;;22.70;99.90;;;;;;5061834;28;20234;-83
2022/10/25 14:10:33;;;;;;;9.95;9.65;;;22.40;99.90;;;;;;5077139;28;20277;-80
2022/10/25 14:13:25;;;;;;;9.90;9.60;;;22.10;99.90;;;;;;5079678;28;20234;-80
2022/10/25 14:26:12;;;;;;;;;;;;;;;;;;;;;
2022/10/25 14:38:33;;;;;;;9.90;9.60;;;21.80;99.90;;;;;;5058674;28;20242;-86
2022/10/25 14:42:06;;;;;;;9.57;9.27;;;22.20;99.90;;;;;;5059772;28;20231;-86
2022/10/25 15:01:03;;;;;;;9.70;9.40;;;23.20;99.90;;;;;;4998650;28;20224;-86
2022/10/25 15:26:06;;;;;;;;;;;;;;;;;;;;;
2022/10/25 16:13:09;;;;;;;9.45;9.15;;;17.90;99.90;;;;;;4906738;29;20240;-88
2022/10/25 16:36:10;;;;;;;7.88;7.68;;;16.90;99.90;;;;;;5015263;28;20226;-85
2022/10/25 16:38:38;;;;;;;7.97;7.78;;;16.70;99.90;;;;;;5065629;28;20234;-85
2022/10/25 16:44:04;;;;;;;8.10;7.90;;;16.50;99.90;;;;;;5063738;28;20226;-83
2022/10/25 16:49:19;;;;;;;8.18;7.97;;;16.20;99.90;;;;;;5064849;28;20241;-82
2022/10/25 16:54:28;;;;;;;8.15;7.95;;;16.10;99.90;;;;;;5064056;28;20230;-82
2022/10/25 16:56:56;;;;;;;8.10;7.90;;;16.00;99.90;;;;;;5064129;28;20234;-83
2022/10/25 17:02:11;;;;;;;7.70;7.50;;;15.80;99.90;;;;;;5077864;28;20217;-83
2022/10/25 17:07:20;;;;;;;8.00;7.80;;;15.60;99.90;;;;;;5084143;28;20268;-83
2022/10/25 17:15:24;;;;;;;7.80;7.60;;;15.40;99.90;;;;;;5083706;28;20226;-83
2022/10/25 17:17:55;;;;;;;7.80;7.60;;;15.20;99.90;;;;;;5086318;28;20288;-83
2022/10/25 17:20:24;;;;;;;7.75;7.55;;;15.20;99.90;;;;;;5084393;28;20257;-82
2022/10/25 17:31:15;;;;;;;7.70;7.50;;;14.80;99.90;;;;;;5083991;28;20222;-84
2022/10/25 17:34:02;;;;;;;8.02;7.82;;;14.70;99.90;;;;;;5090725;28;20233;-84
2022/10/25 17:36:41;;;;;;;7.80;7.60;;;14.60;99.90;;;;;;5096835;28;20361;-84
2022/10/25 17:39:10;;;;;;;7.90;7.70;;;14.60;99.90;;;;;;5087112;28;20230;-84
2022/10/25 17:41:38;;;;;;;7.90;7.70;;;14.50;99.90;;;;;;5087285;28;20256;-84
2022/10/25 17:44:09;;;;;;;8.17;7.97;;;14.40;99.90;;;;;;5085980;28;20254;-85
2022/10/25 17:46:37;;;;;;;8.27;8.07;;;14.40;99.90;;;;;;5125325;22;20288;-82
2022/10/25 17:49:06;;;;;;;8.30;8.10;;;14.30;99.90;;;;;;5116137;28;20228;-81
2022/10/25 17:51:35;;;;;;;8.20;8.00;;;14.20;99.90;;;;;;5095743;28;20218;-80
2022/10/25 17:54:05;;;;;;;8.10;7.90;;;14.20;99.90;;;;;;5092380;28;20212;-80
2022/10/25 17:56:34;;;;;;;8.00;7.80;;;14.10;99.90;;;;;;5096372;28;20325;-80
2022/10/25 17:59:02;;;;;;;8.23;8.03;;;14.00;99.90;;;;;;5080576;28;20238;-80
2022/10/25 18:01:33;;;;;;;8.20;8.00;;;14.00;99.90;;;;;;5086293;28;20226;-79
2022/10/25 18:04:01;;;;;;;8.07;7.87;;;13.90;99.90;;;;;;5087750;28;20237;-80
2022/10/25 18:06:31;;;;;;;8.27;8.07;;;13.90;99.90;;;;;;5090165;28;20223;-80
2022/10/25 18:09:01;;;;;;;8.37;8.17;;;13.80;99.90;;;;;;5068373;28;20253;-81
2022/10/25 18:11:29;;;;;;;8.03;7.83;;;13.70;99.90;;;;;;5064543;28;20230;-81
2022/10/25 18:14:02;;;;;;;8.07;7.87;;;13.70;99.90;;;;;;5060645;28;20235;-79
2022/10/25 18:16:30;;;;;;;8.20;8.00;;;13.60;99.90;;;;;;5060868;28;20250;-80
2022/10/25 18:19:01;;;;;;;8.33;8.13;;;13.50;99.90;;;;;;5061208;28;20263;-78
2022/10/25 18:21:31;;;;;;;8.60;8.40;;;13.40;99.90;;;;;;5058701;28;20290;-78
2022/10/25 18:24:01;;;;;;;8.17;7.97;;;13.30;99.90;;;;;;5059365;28;20234;-78
2022/10/25 18:26:29;;;;;;;8.10;7.90;;;13.20;99.90;;;;;;5059331;28;20226;-78
2022/10/25 18:28:58;;;;;;;8.47;8.27;;;13.10;99.90;;;;;;5059017;28;20325;-78
2022/10/25 18:31:32;;;;;;;8.40;8.20;;;13.00;99.90;;;;;;5057902;28;20226;-79
2022/10/25 18:34:02;;;;;;;8.30;8.10;;;12.90;99.90;;;;;;5058461;28;20226;-79
2022/10/25 18:36:32;;;;;;;8.33;8.13;;;12.80;99.90;;;;;;5058352;28;20300;-79
2022/10/25 18:38:59;;;;;;;8.20;8.00;;;12.80;99.90;;;;;;5058692;28;20235;-78
2022/10/25 18:41:32;;;;;;;8.33;8.13;;;12.70;99.90;;;;;;5061141;28;20287;-78
2022/10/25 18:44:05;;;;;;;8.20;8.00;;;12.70;99.90;;;;;;5069961;28;20265;-78
2022/10/25 18:46:35;;;;;;;8.57;8.37;;;12.70;99.90;;;;;;5077819;28;20269;-78
2022/10/25 18:49:03;;;;;;;8.20;8.00;;;12.60;99.90;;;;;;5077386;28;20232;-79
2022/10/25 18:51:32;;;;;;;8.10;7.90;;;12.60;99.90;;;;;;5078528;28;20227;-78
2022/10/25 18:54:02;;;;;;;7.90;7.70;;;12.60;99.90;;;;;;5078376;28;20242;-79
2022/10/25 18:56:34;;;;;;;8.10;7.90;;;12.60;99.90;;;;;;5078888;28;20229;-78
2022/10/25 18:59:02;;;;;;;8.10;7.90;;;12.50;99.90;;;;;;5078085;28;20230;-78
2022/10/25 19:01:32;;;;;;;7.97;7.77;;;12.50;99.90;;;;;;5074774;28;20282;-78
2022/10/25 19:04:00;;;;;;;8.03;7.83;;;12.50;99.90;;;;;;5066488;28;20318;-78
2022/10/25 19:06:29;;;;;;;8.00;7.80;;;12.50;99.90;;;;;;5069045;28;20231;-78
2022/10/25 19:09:02;;;;;;;7.90;7.70;;;12.40;99.90;;;;;;5079791;28;20226;-78
2022/10/25 19:11:31;;;;;;;8.20;8.00;;;12.40;99.90;;;;;;5078505;28;20230;-78
2022/10/25 19:13:59;;;;;;;8.00;7.80;;;12.40;99.90;;;;;;5076971;28;20278;-77
2022/10/25 19:16:26;;;;;;;8.17;7.97;;;12.30;99.90;;;;;;5076809;28;20240;-78
2022/10/25 19:18:54;;;;;;;8.40;8.20;;;12.10;99.90;;;;;;5076830;28;20324;-78
2022/10/25 19:21:21;;;;;;;8.53;8.33;;;12.10;99.90;;;;;;5076667;28;20282;-78
2022/10/25 19:23:52;;;;;;;8.43;8.23;;;12.00;99.90;;;;;;5078048;28;20238;-79
2022/10/25 19:26:22;;;;;;;8.30;8.10;;;11.90;99.90;;;;;;5078952;28;20238;-78
2022/10/25 19:28:56;;;;;;;8.53;8.33;;;11.80;99.90;;;;;;5078133;28;20234;-77
2022/10/25 19:31:28;;;;;;;8.70;8.50;;;11.70;99.90;;;;;;5077772;28;20243;-78
2022/10/25 19:33:59;;;;;;;8.70;8.50;;;11.60;99.90;;;;;;5077512;28;20237;-77
2022/10/25 19:36:26;;;;;;;8.60;8.40;;;11.60;99.90;;;;;;5077394;28;20230;-77
2022/10/25 19:38:57;;;;;;;8.40;8.20;;;11.60;99.90;;;;;;5077271;28;20318;-77
2022/10/25 19:41:26;;;;;;;8.40;8.20;;;11.60;99.90;;;;;;5078024;28;20309;-77
2022/10/25 19:43:58;;;;;;;8.70;8.50;;;11.60;99.90;;;;;;5082293;28;20232;-77
2022/10/25 19:46:26;;;;;;;8.50;8.30;;;11.60;99.90;;;;;;5082662;28;20237;-77
2022/10/25 19:48:55;;;;;;;8.60;8.40;;;11.60;99.90;;;;;;5077496;28;20256;-77
2022/10/25 19:51:22;;;;;;;8.57;8.37;;;11.60;99.90;;;;;;5077405;28;20241;-79
2022/10/25 19:53:50;;;;;;;8.70;8.50;;;11.60;99.90;;;;;;5078302;28;20286;-79
2022/10/25 19:56:20;;;;;;;8.50;8.30;;;11.60;99.90;;;;;;5084523;28;20286;-79
2022/10/25 19:58:49;;;;;;;8.80;8.60;;;11.60;99.90;;;;;;5079577;28;20230;-78
2022/10/25 20:01:20;;;;;;;8.77;8.57;;;11.60;99.90;;;;;;5078224;28;20273;-79
2022/10/25 20:03:51;;;;;;;8.33;8.13;;;11.60;99.90;;;;;;5067848;28;20237;-79
2022/10/25 20:06:21;;;;;;;8.60;8.40;;;11.60;99.90;;;;;;5060505;28;20277;-78
2022/10/25 20:08:49;;;;;;;8.53;8.33;;;11.60;99.90;;;;;;5057723;28;20753;-77
2022/10/25 20:11:18;;;;;;;8.40;8.20;;;11.60;99.90;;;;;;5055404;28;20241;-77
2022/10/25 20:13:45;;;;;;;8.40;8.20;;;11.60;99.90;;;;;;5056451;28;20231;-78
2022/10/25 20:16:15;;;;;;;8.13;7.93;;;11.60;99.90;;;;;;5057373;28;20235;-78
2022/10/25 20:18:43;;;;;;;8.40;8.20;;;11.50;99.90;;;;;;5060536;28;20230;-78
2022/10/25 20:21:13;;;;;;;8.30;8.10;;;11.50;99.90;;;;;;5058708;28;20253;-76
2022/10/25 20:23:48;;;;;;;8.40;8.20;;;11.50;99.90;;;;;;5058852;28;20322;-77
2022/10/25 20:26:18;;;;;;;8.33;8.13;;;11.40;99.90;;;;;;5058694;28;20292;-77
2022/10/25 20:28:46;;;;;;;8.30;8.10;;;11.40;99.90;;;;;;5058613;28;20241;-76
2022/10/25 20:31:16;;;;;;;8.40;8.20;;;11.40;99.90;;;;;;5058049;28;20242;-75
2022/10/25 20:33:44;;;;;;;8.60;8.40;;;11.40;99.90;;;;;;5057858;28;20218;-77
2022/10/25 20:36:13;;;;;;;8.60;8.40;;;11.40;99.90;;;;;;5066804;28;20235;-76
2022/10/25 20:38:41;;;;;;;8.40;8.20;;;11.40;99.90;;;;;;5078703;28;20293;-75
2022/10/25 20:41:11;;;;;;;8.53;8.33;;;11.30;99.90;;;;;;5070755;28;20215;-77
2022/10/25 20:43:40;;;;;;;8.60;8.40;;;11.20;99.90;;;;;;5067912;28;20237;-76
2022/10/25 20:46:09;;;;;;;8.30;8.10;;;11.20;99.90;;;;;;5075685;28;20260;-79
2022/10/25 20:48:38;;;;;;;8.47;8.27;;;11.20;99.90;;;;;;5073247;28;20243;-77